Aegean Pride — ELXK8 — position and weather

sailwx.info

Track history (hours):
 
Tides and Currents Weather Stations Pressure Air Temp Water Temp Dewpoint Dewpoint Depression Visibility Wind Speed Wind Dir Waves Ship Positions

Aegean Pride

Last reported at 2014-Aug-30 07:33 UTC. Time now 2014-Aug-30 08:33 UTC.
Position N 38°42' E 008°20'.

; draft 12.5 m.

Type: Ship. MMSI: 636011186.

Date/timePositionNaut miles runAvg speedWind from/ knotsBaromVisibWave heightAir tempDewpointWater temp
2014-Aug-30 07:33N 38°42' E 008°20'1111.2
2014-Aug-30 06:33N 38°38' E 008°34'1111.1
2014-Aug-30 05:33N 38°35' E 008°47'1111.0
2014-Aug-30 04:32N 38°32' E 009°01'1110.9
2014-Aug-30 03:33N 38°28' E 009°14'1110.8
2014-Aug-30 02:33N 38°25' E 009°27'1111.1
2014-Aug-30 01:33N 38°22' E 009°40'1111.2
2014-Aug-30 00:33N 38°18' E 009°54'1111.4
2014-Aug-29 23:33N 38°15' E 010°08'1111.1
2014-Aug-29 22:33N 38°11' E 010°21'13910.6
2014-Aug-29 09:25N 37°10' E 012°59'1111.4
2014-Aug-29 08:28N 37°05' E 013°11'1011.3
2014-Aug-29 07:33N 36°60' E 013°22'1211.3
2014-Aug-29 06:31N 36°54' E 013°35'1111.3
2014-Aug-29 05:33N 36°49' E 013°47'1111.3
2014-Aug-29 04:33N 36°44' E 013°59'1111.0
2014-Aug-29 03:33N 36°38' E 014°11'1110.8
2014-Aug-29 02:33N 36°33' E 014°23'1110.7
2014-Aug-29 01:33N 36°28' E 014°35'1010.5
2014-Aug-29 00:33N 36°27' E 014°48'1110.6
2014-Aug-28 23:33N 36°27' E 015°01'1111.0
2014-Aug-28 22:33N 36°26' E 015°14'35410.7
2014-Aug-27 13:31N 36°21' E 022°34'9510.6
2014-Aug-27 04:32N 37°19' E 024°08'2211.2
2014-Aug-27 02:33N 37°35' E 024°27'2311.4
2014-Aug-27 00:33N 37°56' E 024°37'2411.7
2014-Aug-26 22:32N 38°18' E 024°50'3311.2
2014-Aug-26 19:33N 38°48' E 025°08'1211.5
2014-Aug-26 18:33N 38°58' E 025°14'1111.5
2014-Aug-26 17:33N 39°09' E 025°21'1211.4
2014-Aug-26 16:32N 39°19' E 025°27'1311.2
2014-Aug-26 15:22N 39°31' E 025°35'1111.4
2014-Aug-26 14:24N 39°41' E 025°41'75 8.2
2014-Aug-26 05:16N 40°26' E 026°60'1 0.8
2014-Aug-26 04:28N 40°27' E 027°00'89 8.1
2014-Aug-25 17:29N 40°55' E 028°51'6 6.6
2014-Aug-25 16:33N 40°58' E 028°58'34 1.7
2014-Aug-24 20:32N 41°29' E 029°16'0 0.3
2014-Aug-24 19:31N 41°29' E 029°16'6 5.2
2014-Aug-24 18:21N 41°30' E 029°24'41010.6
2014-Aug-23 03:34N 44°37' E 037°44'1 0.9
2014-Aug-23 02:32N 44°37' E 037°43'1 0.6
2014-Aug-23 01:33N 44°37' E 037°42'1 1.2
2014-Aug-23 00:31N 44°36' E 037°42'4 0.3
2014-Aug-22 08:34N 44°38' E 037°36'3 3.1
2014-Aug-22 07:33N 44°36' E 037°40'6 6.4
2014-Aug-22 06:33N 44°35' E 037°48'3 3.4
2014-Aug-22 05:33N 44°35' E 037°53'0 0.0
2014-Aug-22 04:33N 44°35' E 037°53'0 0.0
2014-Aug-22 03:33N 44°35' E 037°53'0 0.0
2014-Aug-22 02:33N 44°35' E 037°53'0 0.1
2014-Aug-22 01:33N 44°35' E 037°53'0 0.0
2014-Aug-22 00:33N 44°35' E 037°53'0 0.1
2014-Aug-21 23:33N 44°35' E 037°53'0 0.1
2014-Aug-21 22:33N 44°35' E 037°53'0 0.0
2014-Aug-21 21:33N 44°35' E 037°53'0 0.1
2014-Aug-21 20:33N 44°35' E 037°53'0 0.0
2014-Aug-21 19:33N 44°35' E 037°53'0 0.0
2014-Aug-21 18:33N 44°35' E 037°53'0 0.0
2014-Aug-21 17:30N 44°35' E 037°53'0 0.1
2014-Aug-21 16:33N 44°35' E 037°53'0 0.1
2014-Aug-21 15:33N 44°35' E 037°53'0 0.0
2014-Aug-21 14:33N 44°35' E 037°53'0 0.0
2014-Aug-21 13:33N 44°35' E 037°53'0 0.0
2014-Aug-21 12:33N 44°35' E 037°54'0 0.1
2014-Aug-21 11:33N 44°35' E 037°53'0 0.0
2014-Aug-21 10:33N 44°35' E 037°53'0 0.1
2014-Aug-21 09:33N 44°35' E 037°53'0 0.2
2014-Aug-21 08:33N 44°35' E 037°53'0 0.2
2014-Aug-21 07:33N 44°35' E 037°53'0 0.0
2014-Aug-21 06:33N 44°35' E 037°53'0 0.0
2014-Aug-21 05:33N 44°35' E 037°53'0 0.1
2014-Aug-21 04:33N 44°35' E 037°53'0 0.0
2014-Aug-21 03:33N 44°35' E 037°53'0 0.0
2014-Aug-21 02:33N 44°35' E 037°53'0 0.0
2014-Aug-21 01:33N 44°35' E 037°53'0 0.0
2014-Aug-21 00:33N 44°35' E 037°53'0 0.0
2014-Aug-20 23:33N 44°35' E 037°53'0 0.0
2014-Aug-20 22:30N 44°35' E 037°53'0 0.0
2014-Aug-20 21:33N 44°35' E 037°53'0 0.0
2014-Aug-20 20:33N 44°35' E 037°53'0 0.0
2014-Aug-20 19:33N 44°35' E 037°53'0 0.0
2014-Aug-20 18:33N 44°35' E 037°53'0 0.0
2014-Aug-20 17:33N 44°35' E 037°53'0 0.1
2014-Aug-20 16:33N 44°35' E 037°53'0 0.1
2014-Aug-20 15:30N 44°35' E 037°53'0 0.1
2014-Aug-20 14:33N 44°35' E 037°53'0 0.0
2014-Aug-20 13:33N 44°35' E 037°53'0 0.2
2014-Aug-20 12:33N 44°35' E 037°53'0 0.1
2014-Aug-20 11:33N 44°35' E 037°53'0 0.1
2014-Aug-20 10:33N 44°35' E 037°53'0 0.0
2014-Aug-20 09:33N 44°35' E 037°53'0 0.0
2014-Aug-20 08:33N 44°35' E 037°53'  
Track history (hours):
 
Tides and Currents Weather Stations Pressure Air Temp Water Temp Dewpoint Dewpoint Depression Visibility Wind Speed Wind Dir Waves Ship Positions

Aegean Pride

Last reported at 2014-Aug-30 07:33 UTC. Time now 2014-Aug-30 08:33 UTC.
Position N 38°42' E 008°20'.

; draft 12.5 m.

Type: Ship. MMSI: 636011186.

Date/timePositionNaut miles runAvg speedWind from/ knotsBaromVisibWave heightAir tempDewpointWater temp
2014-Aug-30 07:33N 38°42' E 008°20'1111.2
2014-Aug-30 06:33N 38°38' E 008°34'1111.1
2014-Aug-30 05:33N 38°35' E 008°47'1111.0
2014-Aug-30 04:32N 38°32' E 009°01'1110.9
2014-Aug-30 03:33N 38°28' E 009°14'1110.8
2014-Aug-30 02:33N 38°25' E 009°27'1111.1
2014-Aug-30 01:33N 38°22' E 009°40'1111.2
2014-Aug-30 00:33N 38°18' E 009°54'1111.4
2014-Aug-29 23:33N 38°15' E 010°08'1111.1
2014-Aug-29 22:33N 38°11' E 010°21'13910.6
2014-Aug-29 09:25N 37°10' E 012°59'1111.4
2014-Aug-29 08:28N 37°05' E 013°11'1011.3
2014-Aug-29 07:33N 36°60' E 013°22'1211.3
2014-Aug-29 06:31N 36°54' E 013°35'1111.3
2014-Aug-29 05:33N 36°49' E 013°47'1111.3
2014-Aug-29 04:33N 36°44' E 013°59'1111.0
2014-Aug-29 03:33N 36°38' E 014°11'1110.8
2014-Aug-29 02:33N 36°33' E 014°23'1110.7
2014-Aug-29 01:33N 36°28' E 014°35'1010.5
2014-Aug-29 00:33N 36°27' E 014°48'1110.6
2014-Aug-28 23:33N 36°27' E 015°01'1111.0
2014-Aug-28 22:33N 36°26' E 015°14'35410.7
2014-Aug-27 13:31N 36°21' E 022°34'9510.6
2014-Aug-27 04:32N 37°19' E 024°08'2211.2
2014-Aug-27 02:33N 37°35' E 024°27'2311.4
2014-Aug-27 00:33N 37°56' E 024°37'2411.7
2014-Aug-26 22:32N 38°18' E 024°50'3311.2
2014-Aug-26 19:33N 38°48' E 025°08'1211.5
2014-Aug-26 18:33N 38°58' E 025°14'1111.5
2014-Aug-26 17:33N 39°09' E 025°21'1211.4
2014-Aug-26 16:32N 39°19' E 025°27'1311.2
2014-Aug-26 15:22N 39°31' E 025°35'1111.4
2014-Aug-26 14:24N 39°41' E 025°41'75 8.2
2014-Aug-26 05:16N 40°26' E 026°60'1 0.8
2014-Aug-26 04:28N 40°27' E 027°00'89 8.1
2014-Aug-25 17:29N 40°55' E 028°51'6 6.6
2014-Aug-25 16:33N 40°58' E 028°58'34 1.7
2014-Aug-24 20:32N 41°29' E 029°16'0 0.3
2014-Aug-24 19:31N 41°29' E 029°16'6 5.2
2014-Aug-24 18:21N 41°30' E 029°24'41010.6
2014-Aug-23 03:34N 44°37' E 037°44'1 0.9
2014-Aug-23 02:32N 44°37' E 037°43'1 0.6
2014-Aug-23 01:33N 44°37' E 037°42'1 1.2
2014-Aug-23 00:31N 44°36' E 037°42'4 0.3
2014-Aug-22 08:34N 44°38' E 037°36'3 3.1
2014-Aug-22 07:33N 44°36' E 037°40'6 6.4
2014-Aug-22 06:33N 44°35' E 037°48'3 3.4
2014-Aug-22 05:33N 44°35' E 037°53'0 0.0
2014-Aug-22 04:33N 44°35' E 037°53'0 0.0
2014-Aug-22 03:33N 44°35' E 037°53'0 0.0
2014-Aug-22 02:33N 44°35' E 037°53'0 0.1
2014-Aug-22 01:33N 44°35' E 037°53'0 0.0
2014-Aug-22 00:33N 44°35' E 037°53'0 0.1
2014-Aug-21 23:33N 44°35' E 037°53'0 0.1
2014-Aug-21 22:33N 44°35' E 037°53'0 0.0
2014-Aug-21 21:33N 44°35' E 037°53'0 0.1
2014-Aug-21 20:33N 44°35' E 037°53'0 0.0
2014-Aug-21 19:33N 44°35' E 037°53'0 0.0
2014-Aug-21 18:33N 44°35' E 037°53'0 0.0
2014-Aug-21 17:30N 44°35' E 037°53'0 0.1
2014-Aug-21 16:33N 44°35' E 037°53'0 0.1
2014-Aug-21 15:33N 44°35' E 037°53'0 0.0
2014-Aug-21 14:33N 44°35' E 037°53'0 0.0
2014-Aug-21 13:33N 44°35' E 037°53'0 0.0
2014-Aug-21 12:33N 44°35' E 037°54'0 0.1
2014-Aug-21 11:33N 44°35' E 037°53'0 0.0
2014-Aug-21 10:33N 44°35' E 037°53'0 0.1
2014-Aug-21 09:33N 44°35' E 037°53'0 0.2
2014-Aug-21 08:33N 44°35' E 037°53'0 0.2
2014-Aug-21 07:33N 44°35' E 037°53'0 0.0
2014-Aug-21 06:33N 44°35' E 037°53'0 0.0
2014-Aug-21 05:33N 44°35' E 037°53'0 0.1
2014-Aug-21 04:33N 44°35' E 037°53'0 0.0
2014-Aug-21 03:33N 44°35' E 037°53'0 0.0
2014-Aug-21 02:33N 44°35' E 037°53'0 0.0
2014-Aug-21 01:33N 44°35' E 037°53'0 0.0
2014-Aug-21 00:33N 44°35' E 037°53'0 0.0
2014-Aug-20 23:33N 44°35' E 037°53'0 0.0
2014-Aug-20 22:30N 44°35' E 037°53'0 0.0
2014-Aug-20 21:33N 44°35' E 037°53'0 0.0
2014-Aug-20 20:33N 44°35' E 037°53'0 0.0
2014-Aug-20 19:33N 44°35' E 037°53'0 0.0
2014-Aug-20 18:33N 44°35' E 037°53'0 0.0
2014-Aug-20 17:33N 44°35' E 037°53'0 0.1
2014-Aug-20 16:33N 44°35' E 037°53'0 0.1
2014-Aug-20 15:30N 44°35' E 037°53'0 0.1
2014-Aug-20 14:33N 44°35' E 037°53'0 0.0
2014-Aug-20 13:33N 44°35' E 037°53'0 0.2
2014-Aug-20 12:33N 44°35' E 037°53'0 0.1
2014-Aug-20 11:33N 44°35' E 037°53'0 0.1
2014-Aug-20 10:33N 44°35' E 037°53'0 0.0
2014-Aug-20 09:33N 44°35' E 037°53'0 0.0
2014-Aug-20 08:33N 44°35' E 037°53'  

Dump ship's entire track history